Time;durP1;ratioP1;P1;durP2;ratioP2;P2;SDS_P1;SDS_P2;PMS_P1;PMS_P2;Temp;Humidity;BMP_temperature;BMP_pressure;BME280_temperature;BME280_humidity;BME280_pressure;Samples;Min_cycle;Max_cycle;Signal;HPM_P1;HPM_P2
2022/08/28 00:01:55;;;;;;;18.73;16.80;;;20.00;99.90;;;;;;5035914;28;20227;-59
2022/08/28 00:04:22;;;;;;;18.50;16.60;;;19.90;99.90;;;;;;5035174;28;20230;-59
2022/08/28 00:06:48;;;;;;;20.73;17.38;;;19.90;99.90;;;;;;5035668;28;20202;-59
2022/08/28 00:09:16;;;;;;;21.52;18.70;;;19.80;99.90;;;;;;5035228;28;20694;-59
2022/08/28 00:11:43;;;;;;;21.92;18.55;;;19.80;99.90;;;;;;5035207;28;20233;-59
2022/08/28 00:14:10;;;;;;;19.45;17.40;;;19.80;99.90;;;;;;5036118;28;20658;-59
2022/08/28 00:16:37;;;;;;;22.42;18.67;;;19.70;99.90;;;;;;5035355;28;20237;-59
2022/08/28 00:19:05;;;;;;;21.20;18.90;;;19.60;99.90;;;;;;5035152;28;20242;-59
2022/08/28 00:21:33;;;;;;;21.73;19.42;;;19.60;99.90;;;;;;5035347;28;20233;-59
2022/08/28 00:24:00;;;;;;;22.85;18.98;;;19.60;99.90;;;;;;5035348;28;20230;-58
2022/08/28 00:29:13;;;;;;;21.92;19.63;;;19.60;99.90;;;;;;5034562;28;20332;-59
2022/08/28 00:31:39;;;;;;;22.20;19.90;;;19.60;99.90;;;;;;5035913;28;20229;-59
2022/08/28 00:34:08;;;;;;;23.75;19.52;;;19.60;99.90;;;;;;5035498;28;20207;-60
2022/08/28 00:36:35;;;;;;;22.38;20.00;;;19.70;99.90;;;;;;5035511;28;20215;-59
2022/08/28 00:39:03;;;;;;;23.48;19.88;;;19.70;99.90;;;;;;5034945;28;20693;-59
2022/08/28 00:41:33;;;;;;;22.38;18.75;;;19.70;99.90;;;;;;5035409;28;20230;-59
2022/08/28 00:44:12;;;;;;;21.27;19.05;;;19.70;99.90;;;;;;5035141;28;20230;-59
2022/08/28 00:46:39;;;;;;;21.25;18.00;;;19.60;99.90;;;;;;5035483;28;20206;-59
2022/08/28 00:49:07;;;;;;;20.38;17.80;;;19.60;99.90;;;;;;5035595;28;20289;-59
2022/08/28 00:54:21;;;;;;;20.77;18.52;;;19.60;99.90;;;;;;5035019;28;20248;-59
2022/08/28 00:56:52;;;;;;;21.30;18.42;;;19.50;99.90;;;;;;5035038;28;20213;-59
2022/08/28 00:59:20;;;;;;;19.45;16.65;;;19.50;99.90;;;;;;5035135;28;20221;-59
2022/08/28 01:01:48;;;;;;;20.85;17.60;;;19.60;99.90;;;;;;5034799;28;20222;-59
2022/08/28 01:04:19;;;;;;;20.88;16.80;;;19.60;99.90;;;;;;5035378;28;20269;-59
2022/08/28 01:06:48;;;;;;;19.05;16.58;;;19.60;99.90;;;;;;5034701;28;20206;-59
2022/08/28 01:09:15;;;;;;;20.42;18.05;;;19.60;99.90;;;;;;5035107;28;20210;-58
2022/08/28 01:11:44;;;;;;;23.95;17.15;;;19.60;99.90;;;;;;5034346;28;20242;-58
2022/08/28 01:14:13;;;;;;;18.33;16.08;;;19.60;99.90;;;;;;5034298;28;20202;-59
2022/08/28 01:16:42;;;;;;;19.58;17.30;;;19.60;99.90;;;;;;5033946;28;20210;-59
2022/08/28 01:19:17;;;;;;;21.92;17.25;;;19.50;99.90;;;;;;5034473;28;20260;-59
2022/08/28 01:21:50;;;;;;;18.70;16.70;;;19.50;99.90;;;;;;5034778;28;20225;-59
2022/08/28 01:24:19;;;;;;;18.60;16.25;;;19.50;99.90;;;;;;5035131;28;20230;-59
2022/08/28 01:26:46;;;;;;;21.48;17.13;;;19.50;99.90;;;;;;5035152;28;20213;-59
2022/08/28 01:29:13;;;;;;;19.42;17.17;;;19.50;99.90;;;;;;5034679;28;20206;-60
2022/08/28 01:31:41;;;;;;;19.55;17.55;;;19.60;99.90;;;;;;5034920;28;20233;-58
2022/08/28 01:34:11;;;;;;;20.50;18.30;;;19.70;99.90;;;;;;5035598;28;20281;-59
2022/08/28 01:36:38;;;;;;;19.60;17.60;;;19.80;99.90;;;;;;5035740;28;20210;-59
2022/08/28 01:39:08;;;;;;;19.45;16.05;;;19.80;99.90;;;;;;5034327;28;20217;-59
2022/08/28 01:41:39;;;;;;;18.45;15.73;;;19.90;99.90;;;;;;5035384;28;20226;-59
2022/08/28 01:44:06;;;;;;;19.15;16.92;;;20.00;99.90;;;;;;5035137;28;20249;-59
2022/08/28 01:46:33;;;;;;;18.83;16.60;;;20.10;99.90;;;;;;5034251;28;20202;-59
2022/08/28 01:49:00;;;;;;;18.95;16.63;;;20.10;99.90;;;;;;5033769;28;20256;-59
2022/08/28 01:51:27;;;;;;;19.90;17.90;;;20.20;99.90;;;;;;5033847;28;20805;-59
2022/08/28 01:53:54;;;;;;;21.73;18.10;;;20.30;99.90;;;;;;5034224;28;20592;-59
2022/08/28 01:56:21;;;;;;;22.20;19.48;;;20.20;99.90;;;;;;5034170;28;20218;-59
2022/08/28 01:58:49;;;;;;;26.25;19.58;;;20.20;99.90;;;;;;5033994;28;20602;-59
2022/08/28 02:01:18;;;;;;;24.55;20.20;;;20.30;99.90;;;;;;5033928;28;20233;-59
2022/08/28 02:03:45;;;;;;;31.95;21.65;;;20.30;99.90;;;;;;5033878;28;20206;-59
2022/08/28 02:06:13;;;;;;;26.63;20.63;;;20.40;99.90;;;;;;5034198;28;20645;-59
2022/08/28 02:08:40;;;;;;;29.45;22.40;;;20.40;99.90;;;;;;5033610;28;20202;-59
2022/08/28 02:11:07;;;;;;;29.25;22.08;;;20.40;99.90;;;;;;5033762;28;20300;-59
2022/08/28 02:13:36;;;;;;;26.70;20.52;;;20.30;99.90;;;;;;5034803;28;20297;-58
2022/08/28 02:16:07;;;;;;;26.50;20.05;;;20.30;99.90;;;;;;5035722;28;20221;-59
2022/08/28 02:18:36;;;;;;;25.08;19.80;;;20.30;99.90;;;;;;5036252;28;20234;-58
2022/08/28 02:21:03;;;;;;;24.85;19.70;;;20.30;99.90;;;;;;5036120;28;20252;-58
2022/08/28 02:23:30;;;;;;;24.00;19.33;;;20.30;99.90;;;;;;5034656;28;20210;-58
2022/08/28 02:25:57;;;;;;;26.77;19.73;;;20.30;99.90;;;;;;5035184;28;20580;-58
2022/08/28 02:28:24;;;;;;;23.20;18.90;;;20.20;99.90;;;;;;5035801;28;20210;-58
2022/08/28 02:30:50;;;;;;;21.67;19.15;;;20.40;99.90;;;;;;5036342;28;20249;-58
2022/08/28 02:33:19;;;;;;;25.58;20.20;;;20.30;99.90;;;;;;5036764;28;20206;-58
2022/08/28 02:35:45;;;;;;;24.67;19.55;;;20.30;99.90;;;;;;5035461;28;20209;-58
2022/08/28 02:38:12;;;;;;;24.02;19.92;;;20.30;99.90;;;;;;5034608;28;20213;-58
2022/08/28 02:40:40;;;;;;;21.65;19.05;;;20.20;99.90;;;;;;5034244;28;20230;-58
2022/08/28 02:43:07;;;;;;;21.85;19.55;;;20.10;99.90;;;;;;5034500;28;20283;-58
2022/08/28 02:45:34;;;;;;;26.73;19.55;;;20.10;99.90;;;;;;5033753;28;20226;-58
2022/08/28 02:48:01;;;;;;;22.30;19.90;;;20.00;99.90;;;;;;5033404;28;20210;-58
2022/08/28 02:50:30;;;;;;;26.48;21.77;;;20.00;99.90;;;;;;5033227;28;20232;-58
2022/08/28 02:52:57;;;;;;;28.30;20.13;;;19.90;99.90;;;;;;5033503;28;20226;-58
2022/08/28 02:55:24;;;;;;;27.50;21.10;;;19.90;99.90;;;;;;5033652;28;20202;-57
2022/08/28 02:57:53;;;;;;;25.42;20.85;;;20.00;99.90;;;;;;5033706;28;20206;-58
2022/08/28 03:00:22;;;;;;;26.08;22.38;;;20.00;99.90;;;;;;5033683;28;20609;-58
2022/08/28 03:02:49;;;;;;;27.25;22.60;;;20.10;99.90;;;;;;5033806;28;20681;-58
2022/08/28 03:05:20;;;;;;;26.38;21.55;;;20.10;99.90;;;;;;5033445;28;20218;-58
2022/08/28 03:07:48;;;;;;;25.40;21.70;;;20.10;99.90;;;;;;5033322;28;20234;-58
2022/08/28 03:10:15;;;;;;;26.08;22.02;;;20.20;99.90;;;;;;5033369;28;20234;-58
2022/08/28 03:12:42;;;;;;;23.77;21.10;;;20.20;99.90;;;;;;5033117;28;20205;-58
2022/08/28 03:15:10;;;;;;;28.08;21.80;;;20.20;99.90;;;;;;5033219;28;20209;-58
2022/08/28 03:17:37;;;;;;;24.00;20.90;;;20.30;99.90;;;;;;5033075;28;20206;-59
2022/08/28 03:20:05;;;;;;;23.42;20.90;;;20.30;99.90;;;;;;5033156;28;20232;-59
2022/08/28 03:25:17;;;;;;;22.52;18.98;;;20.40;99.90;;;;;;5032940;28;20228;-57
2022/08/28 03:27:44;;;;;;;23.90;19.50;;;20.50;99.90;;;;;;5033000;28;20674;-58
2022/08/28 03:30:12;;;;;;;21.27;19.05;;;20.50;99.90;;;;;;5033302;28;20594;-58
2022/08/28 03:32:38;;;;;;;21.02;18.83;;;20.60;99.90;;;;;;5033156;28;20578;-59
2022/08/28 03:35:06;;;;;;;21.35;17.73;;;20.60;99.90;;;;;;5033258;28;20210;-58
2022/08/28 03:37:33;;;;;;;20.13;17.90;;;20.50;99.90;;;;;;5033342;28;20405;-59
2022/08/28 03:40:00;;;;;;;21.38;18.17;;;20.50;99.90;;;;;;5033328;28;20702;-58
2022/08/28 03:42:28;;;;;;;24.17;19.77;;;20.50;99.90;;;;;;5033411;28;20249;-58
2022/08/28 03:44:55;;;;;;;20.55;18.40;;;20.50;99.90;;;;;;5033163;28;20701;-58
2022/08/28 03:47:23;;;;;;;20.17;17.65;;;20.40;99.90;;;;;;5032869;28;20256;-59
2022/08/28 03:49:55;;;;;;;18.85;16.95;;;20.40;99.90;;;;;;5034108;28;20209;-58
2022/08/28 03:52:22;;;;;;;20.77;18.15;;;20.40;99.90;;;;;;5034056;28;20301;-58
2022/08/28 03:54:49;;;;;;;18.52;16.65;;;20.40;99.90;;;;;;5034559;28;20206;-58
2022/08/28 03:57:18;;;;;;;20.35;17.33;;;20.40;99.90;;;;;;5034480;28;20210;-58
2022/08/28 03:59:47;;;;;;;19.33;17.00;;;20.50;99.90;;;;;;5033373;28;20206;-58
2022/08/28 04:02:14;;;;;;;19.17;16.58;;;20.50;99.90;;;;;;5033509;28;20226;-59
2022/08/28 04:04:41;;;;;;;18.58;16.30;;;20.60;99.90;;;;;;5037024;28;20241;-59
2022/08/28 04:07:07;;;;;;;20.83;17.00;;;20.60;99.90;;;;;;5037147;28;20202;-59
2022/08/28 04:09:34;;;;;;;19.13;16.98;;;20.60;99.90;;;;;;5036949;28;20202;-59
2022/08/28 04:12:01;;;;;;;18.40;16.55;;;20.60;99.90;;;;;;5037079;28;20356;-59
2022/08/28 04:14:28;;;;;;;18.73;15.68;;;20.70;99.90;;;;;;5037090;28;20214;-59
2022/08/28 04:16:56;;;;;;;19.30;16.70;;;20.70;99.90;;;;;;5036631;28;20207;-59
2022/08/28 04:19:23;;;;;;;18.45;16.52;;;20.80;99.90;;;;;;5036742;28;20217;-58
2022/08/28 04:21:50;;;;;;;18.63;16.73;;;20.90;99.90;;;;;;5036662;28;20229;-59
2022/08/28 04:24:17;;;;;;;17.30;15.50;;;20.90;99.90;;;;;;5036983;28;20206;-58
2022/08/28 04:26:44;;;;;;;20.05;16.05;;;21.00;99.90;;;;;;5035971;28;20230;-59
2022/08/28 04:29:11;;;;;;;17.50;15.60;;;21.00;99.90;;;;;;5037360;28;20206;-59
2022/08/28 04:31:38;;;;;;;17.88;15.77;;;21.00;99.90;;;;;;5036611;28;20233;-58
2022/08/28 04:34:07;;;;;;;17.25;15.48;;;21.00;99.90;;;;;;5036904;28;20260;-59
2022/08/28 04:36:34;;;;;;;18.27;16.45;;;21.00;99.90;;;;;;5037572;28;20206;-59
2022/08/28 04:39:03;;;;;;;19.35;16.25;;;21.10;99.90;;;;;;5038646;28;20209;-58
2022/08/28 04:41:30;;;;;;;17.65;15.75;;;21.00;99.90;;;;;;5037878;28;20226;-58
2022/08/28 04:43:57;;;;;;;16.48;14.88;;;21.10;99.90;;;;;;5038417;28;20220;-59
2022/08/28 04:46:25;;;;;;;17.90;15.52;;;21.10;99.90;;;;;;5038881;28;20256;-59
2022/08/28 04:48:52;;;;;;;17.80;15.98;;;21.10;99.90;;;;;;5038390;28;20206;-59
2022/08/28 04:51:20;;;;;;;23.42;20.85;;;21.00;99.90;;;;;;5038241;28;20666;-59
2022/08/28 04:53:47;;;;;;;17.92;15.18;;;20.90;99.90;;;;;;5037968;28;20209;-59
2022/08/28 04:56:15;;;;;;;18.20;16.17;;;20.90;99.90;;;;;;5037744;28;20203;-59
2022/08/28 04:58:43;;;;;;;17.65;15.52;;;20.90;99.90;;;;;;5038221;28;20206;-58
2022/08/28 05:01:13;;;;;;;19.83;17.80;;;20.80;99.90;;;;;;5037147;28;20226;-59
2022/08/28 05:03:41;;;;;;;18.80;15.70;;;20.80;99.90;;;;;;5036736;28;20206;-58
2022/08/28 05:06:09;;;;;;;20.58;16.63;;;20.80;99.90;;;;;;5035366;28;20318;-58
2022/08/28 05:08:37;;;;;;;15.80;14.20;;;20.70;99.90;;;;;;5035458;28;20210;-58
2022/08/28 05:11:10;;;;;;;19.42;15.25;;;20.70;99.90;;;;;;5035547;28;20744;-58
2022/08/28 05:13:37;;;;;;;17.45;15.13;;;20.70;99.90;;;;;;5036520;28;20210;-58
2022/08/28 05:16:04;;;;;;;16.95;14.90;;;20.80;99.90;;;;;;5035576;28;20206;-58
2022/08/28 05:18:31;;;;;;;17.23;14.50;;;20.90;99.90;;;;;;5035818;28;20297;-58
2022/08/28 05:20:58;;;;;;;14.90;13.30;;;21.00;99.90;;;;;;5035560;28;20230;-58
2022/08/28 05:23:24;;;;;;;19.08;15.95;;;21.00;99.90;;;;;;5034780;28;20209;-58
2022/08/28 05:25:53;;;;;;;15.93;13.32;;;21.00;99.90;;;;;;5034812;28;20229;-59
2022/08/28 05:28:20;;;;;;;15.23;12.57;;;21.10;99.90;;;;;;5034345;28;20666;-58
2022/08/28 05:30:47;;;;;;;16.40;12.45;;;21.10;99.90;;;;;;5035520;28;20238;-59
2022/08/28 05:33:14;;;;;;;12.57;11.27;;;21.10;99.90;;;;;;5035758;28;20214;-59
2022/08/28 05:35:44;;;;;;;15.20;11.02;;;21.10;99.90;;;;;;5036343;28;20260;-59
2022/08/28 05:38:12;;;;;;;13.45;11.02;;;21.20;99.90;;;;;;5036326;28;20210;-59
2022/08/28 05:40:43;;;;;;;12.48;10.70;;;21.30;99.90;;;;;;5036093;28;20793;-59
2022/08/28 05:43:12;;;;;;;14.60;11.02;;;21.30;99.90;;;;;;5035300;28;20202;-59
2022/08/28 05:45:39;;;;;;;12.18;9.93;;;21.30;99.90;;;;;;5034986;28;20313;-59
2022/08/28 05:48:06;;;;;;;12.73;9.93;;;21.30;99.90;;;;;;5034441;28;20233;-59
2022/08/28 05:50:33;;;;;;;13.55;9.63;;;21.30;99.90;;;;;;5034746;28;20226;-59
2022/08/28 05:53:00;;;;;;;12.05;9.65;;;21.30;99.90;;;;;;5035227;28;20289;-59
2022/08/28 05:55:27;;;;;;;17.63;13.52;;;21.30;99.90;;;;;;5034671;28;20670;-58
2022/08/28 05:57:54;;;;;;;11.63;9.50;;;21.40;99.90;;;;;;5034624;28;20210;-59
2022/08/28 06:00:22;;;;;;;11.88;9.35;;;21.50;99.90;;;;;;5034513;28;20330;-59
2022/08/28 06:02:49;;;;;;;10.75;9.10;;;21.50;99.90;;;;;;5033770;28;20206;-59
2022/08/28 06:05:16;;;;;;;13.40;8.98;;;21.50;99.90;;;;;;5033924;28;20230;-58
2022/08/28 06:07:42;;;;;;;13.18;9.30;;;21.60;99.90;;;;;;5033508;28;20209;-59
2022/08/28 06:10:09;;;;;;;13.82;9.52;;;21.80;99.90;;;;;;5033404;28;20260;-58
2022/08/28 06:12:36;;;;;;;12.15;9.05;;;21.90;99.90;;;;;;5033787;28;20233;-59
2022/08/28 06:15:04;;;;;;;9.95;8.68;;;22.00;99.90;;;;;;5033346;28;20550;-58
2022/08/28 06:17:36;;;;;;;16.90;8.95;;;22.10;99.90;;;;;;5033276;28;20289;-59
2022/08/28 06:20:04;;;;;;;10.23;8.43;;;22.10;99.90;;;;;;5033633;28;20213;-59
2022/08/28 06:22:30;;;;;;;11.70;8.38;;;22.20;99.90;;;;;;5033511;28;20214;-59
2022/08/28 06:24:57;;;;;;;9.85;8.27;;;22.20;99.90;;;;;;5033293;28;20210;-59
2022/08/28 06:27:24;;;;;;;15.02;8.63;;;22.20;99.90;;;;;;5033098;28;20226;-59
2022/08/28 06:29:51;;;;;;;11.73;8.07;;;22.40;99.90;;;;;;5033231;28;20689;-58
2022/08/28 06:32:17;;;;;;;14.30;8.50;;;22.40;99.90;;;;;;5033050;28;20683;-59
2022/08/28 06:34:46;;;;;;;10.38;8.23;;;22.60;99.90;;;;;;5033347;28;20217;-59
2022/08/28 06:37:12;;;;;;;11.38;8.70;;;22.80;99.90;;;;;;5033091;28;20210;-58
2022/08/28 06:39:39;;;;;;;10.38;8.02;;;23.00;99.90;;;;;;5033056;28;20228;-59
2022/08/28 06:42:06;;;;;;;9.15;8.23;;;23.30;99.90;;;;;;5032893;28;20226;-59
2022/08/28 06:44:33;;;;;;;10.15;6.90;;;23.80;99.90;;;;;;5033405;28;20206;-58
2022/08/28 06:47:00;;;;;;;8.88;7.00;;;24.10;99.90;;;;;;5033354;28;20230;-59
2022/08/28 06:49:26;;;;;;;10.52;7.35;;;24.40;99.90;;;;;;5032761;28;20680;-59
2022/08/28 06:51:55;;;;;;;11.68;7.47;;;24.60;99.90;;;;;;5033123;28;20257;-58
2022/08/28 06:54:22;;;;;;;8.23;6.95;;;24.70;99.90;;;;;;5032750;28;20230;-59
2022/08/28 06:56:49;;;;;;;11.30;7.28;;;24.70;99.90;;;;;;5032632;28;20729;-59
2022/08/28 06:59:15;;;;;;;9.18;6.93;;;24.80;99.90;;;;;;5032629;28;20241;-59
2022/08/28 07:01:42;;;;;;;9.98;6.53;;;24.90;99.90;;;;;;5032951;28;20230;-59
2022/08/28 07:04:12;;;;;;;12.80;7.10;;;24.90;99.90;;;;;;5032771;28;20590;-59
2022/08/28 07:06:42;;;;;;;10.48;7.22;;;25.00;99.90;;;;;;5032421;28;20309;-59
2022/08/28 07:09:11;;;;;;;8.52;6.80;;;25.00;99.90;;;;;;5032251;28;20300;-58
2022/08/28 07:11:38;;;;;;;10.35;7.43;;;25.00;99.90;;;;;;5032450;28;20230;-58
2022/08/28 07:14:06;;;;;;;11.75;7.35;;;24.90;99.90;;;;;;5032659;28;20217;-59
2022/08/28 07:16:36;;;;;;;11.63;7.07;;;24.90;99.90;;;;;;5032498;28;20238;-59
2022/08/28 07:19:04;;;;;;;8.75;7.05;;;24.90;99.90;;;;;;5032525;28;20203;-59
2022/08/28 07:21:31;;;;;;;9.00;6.97;;;25.10;99.90;;;;;;5032619;28;20226;-59
2022/08/28 07:23:58;;;;;;;9.57;7.22;;;25.20;99.90;;;;;;5032260;28;20297;-59
2022/08/28 07:26:26;;;;;;;10.30;7.25;;;25.20;99.90;;;;;;5032063;28;20721;-58
2022/08/28 07:28:55;;;;;;;11.18;7.13;;;25.20;99.90;;;;;;5032371;28;20206;-59
2022/08/28 07:31:25;;;;;;;8.45;7.30;;;25.20;99.90;;;;;;5032372;28;20222;-58
2022/08/28 07:33:52;;;;;;;11.57;6.70;;;25.30;99.90;;;;;;5032804;28;20348;-58
2022/08/28 07:36:22;;;;;;;11.05;7.60;;;25.30;99.90;;;;;;5032167;28;20551;-58
2022/08/28 07:38:49;;;;;;;8.68;7.28;;;25.40;99.90;;;;;;5034920;28;20201;-59
2022/08/28 07:41:17;;;;;;;10.15;7.18;;;25.50;99.90;;;;;;5036776;28;20230;-59
2022/08/28 07:46:42;;;;;;;13.07;6.70;;;25.10;99.90;;;;;;4994317;28;20227;-59
2022/08/28 07:49:10;;;;;;;11.07;8.90;;;25.00;99.90;;;;;;5025932;28;20233;-60
2022/08/28 07:51:37;;;;;;;8.98;6.88;;;24.80;99.90;;;;;;5036605;28;20226;-59
2022/08/28 07:54:05;;;;;;;8.70;7.38;;;24.90;99.90;;;;;;5035560;28;20210;-58
2022/08/28 07:56:31;;;;;;;11.77;7.82;;;25.10;99.90;;;;;;5035545;28;20206;-58
2022/08/28 07:59:02;;;;;;;11.30;6.60;;;25.40;99.90;;;;;;5035258;28;20298;-59
2022/08/28 08:01:30;;;;;;;10.60;7.75;;;25.60;99.90;;;;;;5035582;28;20226;-58
2022/08/28 08:03:57;;;;;;;9.07;6.55;;;25.70;99.90;;;;;;5035517;28;20328;-59
2022/08/28 08:06:27;;;;;;;9.45;6.90;;;25.90;99.90;;;;;;5035682;28;20218;-58
2022/08/28 08:08:54;;;;;;;11.35;8.25;;;26.00;99.90;;;;;;5035431;28;20210;-58
2022/08/28 08:11:21;;;;;;;9.55;7.30;;;26.20;99.90;;;;;;5035079;28;20234;-58
2022/08/28 08:13:48;;;;;;;10.85;7.28;;;26.40;99.90;;;;;;5035342;28;20210;-58
2022/08/28 08:16:19;;;;;;;8.52;6.80;;;26.60;99.90;;;;;;5035287;28;20528;-58
2022/08/28 08:18:47;;;;;;;10.95;7.10;;;26.80;99.90;;;;;;5035166;28;20228;-58
2022/08/28 08:21:16;;;;;;;9.82;6.78;;;26.80;99.90;;;;;;5034833;28;20222;-58
2022/08/28 08:23:43;;;;;;;11.63;6.70;;;27.00;99.90;;;;;;5035023;28;20214;-59
2022/08/28 08:26:12;;;;;;;9.73;6.22;;;27.20;99.90;;;;;;5034777;28;20226;-58
2022/08/28 08:28:41;;;;;;;9.20;7.05;;;27.50;99.90;;;;;;5034746;28;20210;-58
2022/08/28 08:31:11;;;;;;;8.45;6.40;;;27.60;99.90;;;;;;5034642;28;20234;-59
2022/08/28 08:33:42;;;;;;;7.25;5.97;;;27.70;99.90;;;;;;5034928;28;20274;-58
2022/08/28 08:36:10;;;;;;;7.63;5.72;;;27.80;99.90;;;;;;5034955;28;20265;-58
2022/08/28 08:38:37;;;;;;;8.68;6.90;;;27.90;99.90;;;;;;5034808;28;20206;-58
2022/08/28 08:41:13;;;;;;;9.98;7.03;;;27.80;99.90;;;;;;5034567;28;20234;-58
2022/08/28 08:43:51;;;;;;;11.00;6.18;;;27.80;99.90;;;;;;5035047;28;20263;-58
2022/08/28 08:46:19;;;;;;;8.57;6.47;;;27.70;99.90;;;;;;5034875;28;20226;-58
2022/08/28 08:48:47;;;;;;;7.88;6.32;;;27.60;99.90;;;;;;5034259;28;20216;-59
2022/08/28 08:51:23;;;;;;;7.22;6.22;;;27.30;99.90;;;;;;5034871;28;20253;-59
2022/08/28 08:53:54;;;;;;;8.65;6.05;;;27.20;99.90;;;;;;5035698;28;20554;-58
2022/08/28 08:56:22;;;;;;;8.65;6.90;;;27.20;99.90;;;;;;5035802;28;20281;-59
2022/08/28 08:58:52;;;;;;;7.40;6.30;;;27.40;99.90;;;;;;5035405;28;20210;-59
2022/08/28 09:01:26;;;;;;;9.55;6.82;;;27.50;99.90;;;;;;5035214;28;20226;-59
2022/08/28 09:04:00;;;;;;;8.65;6.93;;;27.70;99.90;;;;;;5034722;28;20207;-59
2022/08/28 09:06:39;;;;;;;6.28;5.68;;;27.90;99.90;;;;;;5034790;28;20258;-58
2022/08/28 09:09:16;;;;;;;9.15;6.50;;;28.20;99.90;;;;;;5034660;28;20213;-59
2022/08/28 09:11:50;;;;;;;8.65;6.45;;;28.40;99.90;;;;;;5034297;28;20233;-58
2022/08/28 09:14:23;;;;;;;10.55;6.00;;;28.40;99.90;;;;;;5034471;28;20210;-58
2022/08/28 09:16:52;;;;;;;8.20;6.07;;;28.50;99.90;;;;;;5034300;28;20231;-58
2022/08/28 09:19:22;;;;;;;11.75;6.85;;;28.70;99.90;;;;;;5034244;28;20195;-58
2022/08/28 09:21:50;;;;;;;13.38;8.32;;;28.60;99.90;;;;;;5034001;28;20226;-58
2022/08/28 09:24:21;;;;;;;7.82;6.70;;;28.40;99.90;;;;;;5034151;28;20721;-58
2022/08/28 09:26:54;;;;;;;12.30;6.72;;;28.10;99.90;;;;;;5033812;28;20230;-59
2022/08/28 09:29:26;;;;;;;11.48;5.85;;;27.80;99.90;;;;;;5034005;28;20296;-59
2022/08/28 09:31:53;;;;;;;7.28;5.95;;;27.70;99.90;;;;;;5033809;28;20694;-59
2022/08/28 09:34:33;;;;;;;7.97;6.10;;;28.00;99.90;;;;;;5033716;28;20206;-59
2022/08/28 09:37:00;;;;;;;8.98;6.45;;;28.50;99.90;;;;;;5033972;28;20206;-60
2022/08/28 09:39:30;;;;;;;8.18;6.60;;;28.80;99.90;;;;;;5033867;28;20572;-58
2022/08/28 09:44:54;;;;;;;9.98;6.13;;;29.30;99.90;;;;;;5034966;28;20580;-59
2022/08/28 09:47:47;;;;;;;10.32;5.97;;;29.50;99.90;;;;;;5033633;28;20229;-59
2022/08/28 09:50:21;;;;;;;8.50;5.80;;;29.70;99.90;;;;;;5034020;28;20259;-58
2022/08/28 09:52:48;;;;;;;8.77;5.80;;;29.80;99.90;;;;;;5033735;28;20217;-59
2022/08/28 09:55:21;;;;;;;7.35;5.20;;;29.70;99.90;;;;;;5033898;28;20253;-59
2022/08/28 09:57:48;;;;;;;7.70;5.20;;;29.60;99.90;;;;;;5033029;28;20206;-59
2022/08/28 10:00:15;;;;;;;9.18;5.93;;;29.70;99.90;;;;;;5032834;28;20236;-58
2022/08/28 10:02:48;;;;;;;12.98;5.93;;;29.30;99.90;;;;;;5033744;28;20222;-59
2022/08/28 10:05:25;;;;;;;8.43;5.28;;;28.90;99.90;;;;;;5029720;28;20213;-58
2022/08/28 10:07:57;;;;;;;9.55;5.95;;;28.50;99.90;;;;;;5031824;28;20257;-58
2022/08/28 10:10:34;;;;;;;7.07;4.82;;;28.30;99.90;;;;;;5032479;28;20230;-65
2022/08/28 10:13:09;;;;;;;9.30;5.45;;;28.10;99.90;;;;;;5033187;28;20209;-59
2022/08/28 10:15:52;;;;;;;7.90;5.70;;;28.00;99.90;;;;;;5034078;28;20590;-59
2022/08/28 10:18:33;;;;;;;9.20;6.55;;;28.10;99.90;;;;;;5034265;28;20206;-60
2022/08/28 10:21:09;;;;;;;7.88;6.68;;;28.10;99.90;;;;;;5034547;28;20228;-62
2022/08/28 10:23:45;;;;;;;7.32;5.47;;;28.10;99.90;;;;;;5035165;28;20583;-62
2022/08/28 10:26:24;;;;;;;8.70;5.53;;;28.20;99.90;;;;;;5034956;28;20209;-62
2022/08/28 10:28:59;;;;;;;16.98;11.07;;;28.50;99.90;;;;;;5035374;28;20229;-62
2022/08/28 10:31:35;;;;;;;8.07;5.55;;;28.90;99.90;;;;;;5034602;28;20320;-62
2022/08/28 10:34:19;;;;;;;8.82;5.63;;;29.10;99.90;;;;;;5034275;28;20212;-62
2022/08/28 10:36:59;;;;;;;12.23;9.23;;;29.20;99.90;;;;;;5032972;28;20206;-62
2022/08/28 10:39:35;;;;;;;10.88;5.57;;;29.60;99.90;;;;;;5034380;28;20213;-60
2022/08/28 10:42:05;;;;;;;5.50;5.00;;;29.60;99.90;;;;;;5034073;28;20238;-65
2022/08/28 10:44:38;;;;;;;11.85;10.60;;;29.50;99.90;;;;;;5033045;28;20203;-61
2022/08/28 10:47:06;;;;;;;13.23;7.47;;;29.50;99.90;;;;;;5033481;28;20233;-61
2022/08/28 10:49:37;;;;;;;6.55;4.95;;;29.30;99.90;;;;;;5032190;28;20276;-61
2022/08/28 10:52:09;;;;;;;78.93;52.47;;;29.00;99.90;;;;;;5032625;28;20237;-62
2022/08/28 10:54:41;;;;;;;7.03;5.78;;;28.90;99.90;;;;;;5032836;28;20237;-62
2022/08/28 10:57:21;;;;;;;6.22;4.63;;;29.00;99.90;;;;;;5033547;28;20514;-63
2022/08/28 10:59:52;;;;;;;6.68;4.43;;;28.90;99.90;;;;;;5032691;28;20214;-62
2022/08/28 11:02:22;;;;;;;18.25;15.13;;;29.10;99.90;;;;;;5032462;28;20206;-61
2022/08/28 11:04:49;;;;;;;6.72;4.65;;;29.40;99.90;;;;;;5031870;28;20213;-62
2022/08/28 11:07:25;;;;;;;32.33;20.38;;;29.40;99.90;;;;;;5031810;28;20236;-61
2022/08/28 11:09:52;;;;;;;5.43;4.28;;;29.40;99.60;;;;;;5031344;28;20674;-61
2022/08/28 11:12:36;;;;;;;8.93;5.25;;;29.30;99.20;;;;;;5033409;28;20210;-62
2022/08/28 11:15:37;;;;;;;11.45;7.88;;;29.30;99.10;;;;;;5035119;28;20234;-60
2022/08/28 11:18:42;;;;;;;13.25;4.78;;;29.50;98.30;;;;;;5036108;28;20666;-62
2022/08/28 11:21:15;;;;;;;9.77;4.75;;;29.90;99.90;;;;;;5035506;28;20721;-62
2022/08/28 11:23:49;;;;;;;7.45;4.85;;;29.90;99.90;;;;;;5035681;28;20202;-62
2022/08/28 11:26:28;;;;;;;8.57;5.30;;;30.10;99.90;;;;;;5035689;28;20210;-62
2022/08/28 11:28:56;;;;;;;6.03;4.63;;;30.30;99.90;;;;;;5035493;28;20280;-62
2022/08/28 11:31:31;;;;;;;6.55;4.88;;;30.40;99.20;;;;;;5035843;28;20335;-62
2022/08/28 11:33:59;;;;;;;6.05;4.50;;;30.50;98.60;;;;;;5035625;28;20255;-62
2022/08/28 11:37:12;;;;;;;4.72;4.20;;;30.60;98.40;;;;;;5035915;28;20246;-64
2022/08/28 11:39:40;;;;;;;5.78;3.90;;;30.80;97.70;;;;;;5036228;28;20237;-60
2022/08/28 11:42:33;;;;;;;9.30;4.95;;;31.00;96.10;;;;;;5036425;28;20232;-60
2022/08/28 11:45:01;;;;;;;7.13;4.63;;;30.80;95.30;;;;;;5036891;28;20218;-58
2022/08/28 11:47:44;;;;;;;9.10;4.55;;;30.40;95.70;;;;;;5036070;28;20317;-57
2022/08/28 11:50:24;;;;;;;7.80;4.50;;;29.90;96.10;;;;;;5035652;28;20213;-57
2022/08/28 11:53:16;;;;;;;6.22;4.20;;;29.70;96.50;;;;;;5035794;28;20264;-57
2022/08/28 11:56:11;;;;;;;8.63;4.75;;;29.50;97.20;;;;;;5036033;28;20202;-57
2022/08/28 11:58:44;;;;;;;7.65;4.82;;;29.50;99.50;;;;;;5036110;28;20611;-56
2022/08/28 12:01:13;;;;;;;6.18;5.03;;;29.70;99.80;;;;;;5035629;28;20306;-57
2022/08/28 12:03:43;;;;;;;7.82;4.90;;;29.60;99.90;;;;;;5036120;28;20218;-57
2022/08/28 12:06:12;;;;;;;5.03;4.50;;;29.50;99.70;;;;;;5035987;28;20260;-57
2022/08/28 12:09:11;;;;;;;7.45;4.70;;;29.40;99.10;;;;;;5038448;28;20670;-57
2022/08/28 12:12:08;;;;;;;8.43;4.40;;;29.40;99.70;;;;;;5038431;28;20242;-57
2022/08/28 12:15:09;;;;;;;6.28;4.63;;;29.50;99.30;;;;;;5024468;28;20211;-57
2022/08/28 12:17:51;;;;;;;6.57;3.90;;;29.60;97.60;;;;;;5037135;28;20208;-57
2022/08/28 12:20:56;;;;;;;8.25;4.85;;;29.90;96.50;;;;;;5036615;28;20607;-57
2022/08/28 12:23:33;;;;;;;5.75;3.97;;;30.20;96.50;;;;;;5036027;28;20697;-57
2022/08/28 12:26:02;;;;;;;7.03;3.90;;;30.60;95.70;;;;;;5036114;28;20610;-57
2022/08/28 12:28:33;;;;;;;7.82;5.25;;;30.90;94.90;;;;;;5036569;28;20263;-57
2022/08/28 12:34:18;;;;;;;6.13;4.10;;;31.00;93.80;;;;;;5035345;28;20190;-57
2022/08/28 12:36:45;;;;;;;4.32;3.85;;;30.70;94.10;;;;;;5036588;28;20216;-57
2022/08/28 12:39:17;;;;;;;6.25;4.03;;;30.80;94.30;;;;;;5036852;28;20701;-57
2022/08/28 12:41:44;;;;;;;5.15;4.00;;;30.80;94.80;;;;;;5036144;28;20234;-57
2022/08/28 12:44:14;;;;;;;8.20;3.95;;;30.70;94.90;;;;;;5035560;28;20210;-57
2022/08/28 12:46:43;;;;;;;5.97;4.45;;;30.30;95.30;;;;;;5035530;28;20202;-57
2022/08/28 12:49:27;;;;;;;4.55;4.15;;;29.50;96.20;;;;;;5035733;28;20265;-57
2022/08/28 12:52:08;;;;;;;8.10;4.30;;;29.00;97.10;;;;;;5035814;28;20226;-57
2022/08/28 12:54:35;;;;;;;5.95;3.40;;;28.60;97.50;;;;;;5036161;28;20212;-57
2022/08/28 12:57:05;;;;;;;6.57;3.63;;;28.60;97.90;;;;;;5036943;28;20202;-57
2022/08/28 12:59:38;;;;;;;5.43;3.83;;;28.80;97.80;;;;;;5038041;28;20218;-57
2022/08/28 13:02:09;;;;;;;4.75;3.60;;;28.90;97.60;;;;;;5038635;28;20226;-58
2022/08/28 13:04:39;;;;;;;4.72;3.50;;;29.20;96.90;;;;;;5038600;28;20647;-58
2022/08/28 13:07:10;;;;;;;4.40;3.65;;;29.10;95.80;;;;;;5038356;28;20210;-58
2022/08/28 13:09:39;;;;;;;5.10;3.80;;;28.90;95.80;;;;;;5037810;28;20209;-57